Taos, Missouri
Current Conditions -  °F | °C
As of 12:53 PM on Friday 24 Oct 2014 (Local Time) from KJEF Reporting Station
Broken Clouds Broken Clouds  
Wind Chill: 70°   Ceiling: 5000
Heat Index: 70°   Visibility: 10mi
Dew Point: 58°   Wind: 6mph
Humidity: 65%   Direction: 160°SSE
Pressure: 30.08"   Gusts: NA
Location:  38.5003°N, 92.1516°W
Report Text: KJEF 241753Z 16005KT 10SM BKN050 21/14 A3008 RMK AO2 SLP175 T02110144 10211 20078 58013
Loading
Personal Weather Stations






























Interactive Weather Map New forecast layout! Learn more

10-Day Weather Forecast

Advertisements
Track Severe Weather on mobile